الصفحة الرئيسية
METAR-TAF:

METAR-TAF

مطار :

Clayton, نيومكسيكو, الولايات المتحدة

دائرة عرض: 36-26-54N, خط طول: 103-09-11W, ارتفاع: 1513 متر

مراقبة الطقس الحالي

تاريخ ووقت الإصدار 51 دقيقة قبل الساعة 20:55UTC
ريح 22 عقدة من الجنوب تتزايد حتى 26 عقدة
درجة الحرارة 15°درجة مئوية
الرطوبة 27%
ضغط 1021 hPa
الرؤية: 16.1 كم
سماء صافية

METAR: KCAO 182055Z AUTO 19022G26KT 10SM CLR 15/M04 A3016 RMK AO2 PK WND 19026/2054 SLP192 T01501039 58033

زمن: 15:46 (21:46 UTC)


TAF: مفقودة

أرصاد الطقس والتوقعات من أكثر من 4000 مطار (تقارير الطقس للمطار METAR والتنبؤ بالطقس بالمطارTAF).

المحطات المتاحة هي النقط الصفراء والحمراء على الخريطة.

حرك المؤشر فوق النقطة لمعرفة اسم المحطة.

ثم انقر لمعرفة أرصاد وتوقعات الطقس.

لتغيير الخارطة: اضغط على الأزرار الخضراء مع رمز الصليب الأسود للتكبير. على الزر الأخضر مع شرطة للتصغير، أو على الأسهم الخضراء للخرائط المجاورة.


METAR-TAF: